Main page
METAR-TAF:

METAR-TAF

Airports :

Dubai International Airport

Dubai, United Arab Emirates

latitude: 25-15-10N, longitude: 055-21-52E, elevation: 8 m

Current weather observation

The report was made 38 minutes ago, at 09:00 UTC
Wind 12 kt from the West/Northwest
Temperature 38°C
Humidity 19%
Pressure 1006 hPa
Visibility 10 km or more
no clouds below 1500 m and no cumulonimbus

METAR: OMDB 090900Z 29012KT CAVOK 38/10 Q1006 NOSIG

Time: 13:38 (09:38 UTC)

Forecast

The report was made 4 hours and 38 minutes ago, at 05:00 UTC
Forecast valid from 09 at 06 UTC to 10 at 12 UTC
Wind 8 kt from the South
Visibility 10 km or more
no clouds below 1500 m and no cumulonimbus
Becoming
from 09 at 06 UTC to 09 at 08 UTC
Wind 15 kt from the West
Becoming
from 09 at 16 UTC to 09 at 18 UTC
Wind 5 kt from the South/Southwest
Becoming
from 10 at 05 UTC to 10 at 07 UTC
Wind 12 kt from the West

TAF: OMDB 090500Z 0906/1012 19008KT CAVOK BECMG 0906/0908 28015KT BECMG 0916/0918 21005KT BECMG 1005/1007 28012KT

Weather observations and forecasts of more than 4000 airports (METAR and TAF reports).

The available stations are represented by yellow and red dots on the map.

Hover mouse over dot to see the name of the station.

Then click to see weather observations and forecasts.

To change the map : click on the green buttons with a black cross to zoom in, on the green button with a dash to zoom out, or on the green arrows for adjacent maps.


METAR-TAF: